Jessore, Bangladesh
Current Conditions -  °F | °C
As of 8:50 AM on Thursday 27 Nov 2014 (Local Time) from VECC Reporting Station
Haze Haze  
Wind Chill: 64°   Ceiling: Unl
Heat Index: 64°   Visibility: 0.87mi
Dew Point: 59°   Wind: 3mph
Humidity: 83%   Direction: 350°N
Pressure: 29.91"   Gusts: NA
Location:  23.15°N, 89.21°E
Report Text: VECC 270250Z 35003KT 1400 R19L/1500 RMID/1500 R01R/1500 R19R/1500 BR NSC18/15 Q1013 BECMG 1500 BR
Loading
Personal Weather Stations






























Interactive Weather Map New forecast layout! Learn more

10-Day Weather Forecast

Advertisements
Track Severe Weather on mobile